Time,TemperatureF,DewpointF,PressureIn,WindDirection,WindDirectionDegrees,WindSpeedMPH,WindSpeedGustMPH,Humidity,HourlyPrecipIn,Conditions,Clouds,dailyrainin,SoftwareType,DateUTC
2013-09-19 00:01:00,56.9,52.4,30.17,SW,235,0.0,0.0,85,0.00,,,0.00,WeatherDisplay:10.37,2013-09-19 04:01:00,
2013-09-19 00:06:00,56.6,52.1,30.17,SW,235,0.0,0.0,85,0.00,,,0.00,WeatherDisplay:10.37,2013-09-19 04:06:00,
2013-09-19 00:08:00,56.5,51.7,30.17,SW,235,0.0,0.0,84,0.00,,,0.00,WeatherDisplay:10.37,2013-09-19 04:08:00,
2013-09-19 00:13:00,56.4,51.9,30.17,SW,235,0.0,0.0,85,0.00,,,0.00,WeatherDisplay:10.37,2013-09-19 04:13:00,
2013-09-19 00:18:00,56.4,51.9,30.17,SW,235,0.0,0.0,85,0.00,,,0.00,WeatherDisplay:10.37,2013-09-19 04:18:00,
2013-09-19 00:23:00,56.3,51.8,30.17,SW,235,0.0,0.0,85,0.00,,,0.00,WeatherDisplay:10.37,2013-09-19 04:23:00,
2013-09-19 00:28:00,56.5,52.4,30.17,SW,235,0.0,0.0,86,0.00,,,0.00,WeatherDisplay:10.37,2013-09-19 04:28:00,
2013-09-19 00:33:00,56.5,52.0,30.17,SW,235,0.0,0.0,85,0.00,,,0.00,WeatherDisplay:10.37,2013-09-19 04:33:00,
2013-09-19 00:38:00,56.5,52.0,30.17,SW,235,0.0,0.0,85,0.00,,,0.00,WeatherDisplay:10.37,2013-09-19 04:38:00,
2013-09-19 00:43:00,56.6,52.5,30.17,SW,235,0.0,0.0,86,0.00,,,0.00,WeatherDisplay:10.37,2013-09-19 04:43:00,
2013-09-19 00:48:00,56.7,52.6,30.17,SW,235,0.0,0.0,86,0.00,,,0.00,WeatherDisplay:10.37,2013-09-19 04:48:00,
2013-09-19 00:53:00,56.7,52.6,30.17,SW,235,0.0,0.0,86,0.00,,,0.00,WeatherDisplay:10.37,2013-09-19 04:53:00,
2013-09-19 00:58:00,56.6,52.5,30.17,SW,235,0.0,0.0,86,0.00,,,0.00,WeatherDisplay:10.37,2013-09-19 04:58:00,
2013-09-19 01:03:00,56.5,52.4,30.17,SW,235,0.0,0.0,86,0.00,,,0.00,WeatherDisplay:10.37,2013-09-19 05:03:00,
2013-09-19 01:08:00,56.4,52.3,30.17,SW,235,0.0,0.0,86,0.00,,,0.00,WeatherDisplay:10.37,2013-09-19 05:08:00,
2013-09-19 01:13:00,56.3,51.8,30.17,SW,235,0.0,0.0,85,0.00,,,0.00,WeatherDisplay:10.37,2013-09-19 05:13:00,
2013-09-19 01:18:00,56.1,52.0,30.17,SW,235,0.0,0.0,86,0.00,,,0.00,WeatherDisplay:10.37,2013-09-19 05:18:00,
2013-09-19 01:23:00,56.1,52.3,30.17,SW,235,0.0,0.0,87,0.00,,,0.00,WeatherDisplay:10.37,2013-09-19 05:23:00,
2013-09-19 01:28:00,56.3,52.5,30.17,SW,235,0.0,0.0,87,0.00,,,0.00,WeatherDisplay:10.37,2013-09-19 05:28:00,
2013-09-19 01:33:00,56.4,52.6,30.17,SW,235,0.0,0.0,87,0.00,,,0.00,WeatherDisplay:10.37,2013-09-19 05:33:00,
2013-09-19 01:38:00,56.4,52.6,30.16,SW,235,0.0,0.0,87,0.00,,,0.00,WeatherDisplay:10.37,2013-09-19 05:38:00,
2013-09-19 01:43:00,56.4,52.6,30.16,SW,235,0.0,0.0,87,0.00,,,0.00,WeatherDisplay:10.37,2013-09-19 05:43:00,
2013-09-19 01:48:00,56.3,52.5,30.16,SW,235,0.0,0.0,87,0.00,,,0.00,WeatherDisplay:10.37,2013-09-19 05:48:00,
2013-09-19 01:53:00,56.3,52.5,30.16,SW,235,0.0,0.0,87,0.00,,,0.00,WeatherDisplay:10.37,2013-09-19 05:53:00,
2013-09-19 01:58:00,56.2,52.4,30.16,SW,235,0.0,0.0,87,0.00,,,0.00,WeatherDisplay:10.37,2013-09-19 05:58:00,
2013-09-19 02:03:00,56.3,52.8,30.16,SW,235,0.0,0.0,88,0.00,,,0.00,WeatherDisplay:10.37,2013-09-19 06:03:00,
2013-09-19 02:08:00,56.4,52.9,30.16,SW,235,0.0,0.0,88,0.00,,,0.00,WeatherDisplay:10.37,2013-09-19 06:08:00,
2013-09-19 02:13:00,56.5,53.0,30.16,SW,235,0.0,0.0,88,0.00,,,0.00,WeatherDisplay:10.37,2013-09-19 06:13:00,
2013-09-19 02:18:00,56.6,53.1,30.16,SW,235,0.0,0.0,88,0.00,,,0.00,WeatherDisplay:10.37,2013-09-19 06:18:00,
2013-09-19 02:23:00,56.8,53.0,30.16,SW,235,0.0,0.0,87,0.00,,,0.00,WeatherDisplay:10.37,2013-09-19 06:23:00,
2013-09-19 02:28:00,56.8,53.0,30.16,SW,235,0.0,0.0,87,0.00,,,0.00,WeatherDisplay:10.37,2013-09-19 06:28:00,
2013-09-19 02:33:00,56.8,53.0,30.16,SW,235,0.0,0.0,87,0.00,,,0.00,WeatherDisplay:10.37,2013-09-19 06:33:00,
2013-09-19 02:38:00,56.8,53.3,30.16,SW,235,0.0,0.0,88,0.00,,,0.00,WeatherDisplay:10.37,2013-09-19 06:38:00,
2013-09-19 02:43:00,57.0,53.5,30.15,SW,233,0.0,0.0,88,0.00,,,0.00,WeatherDisplay:10.37,2013-09-19 06:43:00,
2013-09-19 02:48:00,57.1,53.6,30.15,SSE,163,0.0,0.0,88,0.00,,,0.00,WeatherDisplay:10.37,2013-09-19 06:48:00,
2013-09-19 02:53:00,57.3,53.8,30.15,SSE,163,0.0,0.0,88,0.00,,,0.00,WeatherDisplay:10.37,2013-09-19 06:53:00,
2013-09-19 02:58:00,57.3,53.8,30.15,SSE,164,0.0,0.0,88,0.00,,,0.00,WeatherDisplay:10.37,2013-09-19 06:58:00,
2013-09-19 03:03:00,57.2,53.4,30.15,SSE,163,0.0,0.0,87,0.00,,,0.00,WeatherDisplay:10.37,2013-09-19 07:03:00,
2013-09-19 03:08:00,57.2,53.4,30.15,SSE,163,0.0,0.0,87,0.00,,,0.00,WeatherDisplay:10.37,2013-09-19 07:08:00,
2013-09-19 03:13:00,57.0,53.2,30.15,SSE,164,0.0,0.0,87,0.00,,,0.00,WeatherDisplay:10.37,2013-09-19 07:13:00,
2013-09-19 03:18:00,56.8,53.0,30.15,SSE,163,0.0,0.0,87,0.00,,,0.00,WeatherDisplay:10.37,2013-09-19 07:18:00,
2013-09-19 03:23:00,56.7,53.2,30.15,SSE,163,0.0,0.0,88,0.00,,,0.00,WeatherDisplay:10.37,2013-09-19 07:23:00,
2013-09-19 03:28:00,56.6,53.1,30.15,SW,215,0.0,0.0,88,0.00,,,0.00,WeatherDisplay:10.37,2013-09-19 07:28:00,
2013-09-19 03:33:00,56.5,53.0,30.15,SW,215,0.0,0.0,88,0.00,,,0.00,WeatherDisplay:10.37,2013-09-19 07:33:00,
2013-09-19 03:38:00,56.6,53.4,30.14,SW,215,0.0,0.0,89,0.00,,,0.00,WeatherDisplay:10.37,2013-09-19 07:38:00,
2013-09-19 03:43:00,56.6,53.1,30.14,SW,215,0.0,0.0,88,0.00,,,0.00,WeatherDisplay:10.37,2013-09-19 07:43:00,
2013-09-19 03:48:00,56.6,53.4,30.14,SW,216,0.0,0.0,89,0.00,,,0.00,WeatherDisplay:10.37,2013-09-19 07:48:00,
2013-09-19 03:53:00,56.7,53.2,30.14,SSW,213,1.1,0.0,88,0.00,,,0.00,WeatherDisplay:10.37,2013-09-19 07:53:00,
2013-09-19 03:58:00,56.8,53.3,30.14,SSE,168,0.0,0.0,88,0.00,,,0.00,WeatherDisplay:10.37,2013-09-19 07:58:00,
2013-09-19 04:03:00,56.9,53.4,30.14,SW,225,0.0,0.0,88,0.00,,,0.00,WeatherDisplay:10.37,2013-09-19 08:03:00,
2013-09-19 04:08:00,57.0,53.5,30.15,SW,226,0.0,0.0,88,0.00,,,0.00,WeatherDisplay:10.37,2013-09-19 08:08:00,
2013-09-19 04:13:00,57.2,53.7,30.14,SSE,149,0.0,0.0,88,0.00,,,0.00,WeatherDisplay:10.37,2013-09-19 08:13:00,
2013-09-19 04:18:00,57.3,53.8,30.15,SSE,150,0.0,0.0,88,0.00,,,0.00,WeatherDisplay:10.37,2013-09-19 08:18:00,
2013-09-19 04:23:00,57.4,53.9,30.15,SSE,149,0.0,0.0,88,0.00,,,0.00,WeatherDisplay:10.37,2013-09-19 08:23:00,
2013-09-19 04:28:00,57.5,54.0,30.15,SSE,149,0.0,0.0,88,0.00,,,0.00,WeatherDisplay:10.37,2013-09-19 08:28:00,
2013-09-19 04:33:00,57.6,54.1,30.15,SSE,151,0.0,0.0,88,0.00,,,0.00,WeatherDisplay:10.37,2013-09-19 08:33:00,
2013-09-19 04:38:00,57.6,54.1,30.15,SSE,154,0.0,0.0,88,0.00,,,0.00,WeatherDisplay:10.37,2013-09-19 08:38:00,
2013-09-19 04:43:00,57.6,54.1,30.15,SSE,153,0.0,0.0,88,0.00,,,0.00,WeatherDisplay:10.37,2013-09-19 08:43:00,
2013-09-19 04:48:00,57.7,54.2,30.15,SSE,155,0.0,0.0,88,0.00,,,0.00,WeatherDisplay:10.37,2013-09-19 08:48:00,
2013-09-19 04:53:00,57.7,54.2,30.15,SSE,155,0.0,0.0,88,0.00,,,0.00,WeatherDisplay:10.37,2013-09-19 08:53:00,
2013-09-19 04:58:00,57.8,54.3,30.15,SSE,154,0.0,0.0,88,0.00,,,0.00,WeatherDisplay:10.37,2013-09-19 08:58:00,
2013-09-19 05:03:00,57.9,54.4,30.15,SSE,154,0.0,0.0,88,0.00,,,0.00,WeatherDisplay:10.37,2013-09-19 09:03:00,
2013-09-19 05:08:00,58.0,54.5,30.15,SSE,155,0.0,0.0,88,0.00,,,0.00,WeatherDisplay:10.37,2013-09-19 09:08:00,
2013-09-19 05:13:00,58.1,54.6,30.15,SSE,154,0.0,0.0,88,0.00,,,0.00,WeatherDisplay:10.37,2013-09-19 09:13:00,
2013-09-19 05:18:00,58.2,54.3,30.15,SSE,153,0.0,0.0,87,0.00,,,0.00,WeatherDisplay:10.37,2013-09-19 09:18:00,
2013-09-19 05:23:00,58.2,54.3,30.15,SSE,154,0.0,0.0,87,0.00,,,0.00,WeatherDisplay:10.37,2013-09-19 09:23:00,
2013-09-19 05:28:00,58.2,54.3,30.15,SSE,153,0.0,0.0,87,0.00,,,0.00,WeatherDisplay:10.37,2013-09-19 09:28:00,
2013-09-19 05:33:00,58.3,54.4,30.15,SSE,152,0.0,0.0,87,0.00,,,0.00,WeatherDisplay:10.37,2013-09-19 09:33:00,
2013-09-19 05:38:00,58.3,54.4,30.15,SSE,149,0.0,0.0,87,0.00,,,0.00,WeatherDisplay:10.37,2013-09-19 09:38:00,
2013-09-19 05:43:00,58.3,54.4,30.15,SSE,149,0.0,0.0,87,0.00,,,0.00,WeatherDisplay:10.37,2013-09-19 09:43:00,
2013-09-19 05:48:00,58.4,54.5,30.15,SSE,149,0.0,0.0,87,0.00,,,0.00,WeatherDisplay:10.37,2013-09-19 09:48:00,
2013-09-19 05:53:00,58.4,54.5,30.15,SSE,148,0.0,0.0,87,0.00,,,0.00,WeatherDisplay:10.37,2013-09-19 09:53:00,
2013-09-19 05:58:00,58.4,54.5,30.15,SSE,148,0.0,0.0,87,0.00,,,0.00,WeatherDisplay:10.37,2013-09-19 09:58:00,
2013-09-19 06:03:00,58.4,54.5,30.16,SSE,148,0.0,0.0,87,0.00,,,0.00,WeatherDisplay:10.37,2013-09-19 10:03:00,
2013-09-19 06:08:00,58.4,54.5,30.16,SSE,149,0.0,0.0,87,0.00,,,0.00,WeatherDisplay:10.37,2013-09-19 10:08:00,
2013-09-19 06:13:00,58.4,54.5,30.15,SSE,149,0.0,0.0,87,0.00,,,0.00,WeatherDisplay:10.37,2013-09-19 10:13:00,
2013-09-19 06:18:00,58.5,55.0,30.15,SSE,149,0.0,0.0,88,0.00,,,0.00,WeatherDisplay:10.37,2013-09-19 10:18:00,
2013-09-19 06:23:00,58.6,55.1,30.15,SSE,149,0.0,0.0,88,0.00,,,0.00,WeatherDisplay:10.37,2013-09-19 10:23:00,
2013-09-19 06:28:00,58.6,55.1,30.15,SSE,149,0.0,0.0,88,0.00,,,0.00,WeatherDisplay:10.37,2013-09-19 10:28:00,
2013-09-19 06:34:00,58.5,55.0,30.15,SSE,150,0.0,0.0,88,0.00,,,0.00,WeatherDisplay:10.37,2013-09-19 10:34:00,
2013-09-19 06:39:00,58.6,55.1,30.15,SSE,150,0.0,0.0,88,0.00,,,0.00,WeatherDisplay:10.37,2013-09-19 10:39:00,
2013-09-19 06:44:00,58.6,55.1,30.15,SSE,149,0.0,0.0,88,0.00,,,0.00,WeatherDisplay:10.37,2013-09-19 10:44:00,
2013-09-19 06:49:00,58.6,55.1,30.15,SSE,149,0.0,0.0,88,0.00,,,0.00,WeatherDisplay:10.37,2013-09-19 10:49:00,
2013-09-19 06:54:00,58.6,55.1,30.16,SSE,149,0.0,0.0,88,0.00,,,0.00,WeatherDisplay:10.37,2013-09-19 10:54:00,
2013-09-19 06:59:00,58.6,55.1,30.16,SSE,149,0.0,0.0,88,0.00,,,0.00,WeatherDisplay:10.37,2013-09-19 10:59:00,
2013-09-19 07:04:00,58.7,55.2,30.16,SSE,148,0.0,0.0,88,0.00,CLR,,0.00,WeatherDisplay:10.37,2013-09-19 11:04:00,
2013-09-19 07:09:00,58.8,55.3,30.16,SSE,148,0.0,0.0,88,0.00,CLR,,0.00,WeatherDisplay:10.37,2013-09-19 11:09:00,
2013-09-19 07:14:00,58.8,55.3,30.16,SSE,148,0.0,0.0,88,0.00,CLR,,0.00,WeatherDisplay:10.37,2013-09-19 11:14:00,
2013-09-19 07:19:00,58.8,55.6,30.16,SSE,150,0.0,0.0,89,0.00,CLR,,0.00,WeatherDisplay:10.37,2013-09-19 11:19:00,
2013-09-19 07:24:00,58.8,55.3,30.16,SSE,149,0.0,0.0,88,0.00,CLR,,0.00,WeatherDisplay:10.37,2013-09-19 11:24:00,
2013-09-19 07:29:00,58.9,55.4,30.16,SSE,150,0.0,0.0,88,0.00,CLR,,0.00,WeatherDisplay:10.37,2013-09-19 11:29:00,
2013-09-19 07:34:00,59.0,55.8,30.16,SSE,150,0.0,0.0,89,0.00,CLR,,0.00,WeatherDisplay:10.37,2013-09-19 11:34:00,
2013-09-19 07:39:00,59.1,55.5,30.16,SSE,149,0.0,0.0,88,0.00,CLR,,0.00,WeatherDisplay:10.37,2013-09-19 11:39:00,
2013-09-19 07:44:00,59.2,55.6,30.16,SSE,149,0.0,0.0,88,0.00,CLR,,0.00,WeatherDisplay:10.37,2013-09-19 11:44:00,
2013-09-19 07:49:00,59.3,55.7,30.16,SE,142,0.0,0.0,88,0.00,CLR,,0.00,WeatherDisplay:10.37,2013-09-19 11:49:00,
2013-09-19 07:54:00,59.5,55.6,30.16,SE,142,0.0,0.0,87,0.00,CLR,,0.00,WeatherDisplay:10.37,2013-09-19 11:54:00,
2013-09-19 07:59:00,59.6,55.7,30.16,SE,142,0.0,0.0,87,0.00,CLR,,0.00,WeatherDisplay:10.37,2013-09-19 11:59:00,
2013-09-19 08:04:00,59.9,56.0,30.16,SE,143,1.1,0.0,87,0.00,CLR,,0.00,WeatherDisplay:10.37,2013-09-19 12:04:00,
2013-09-19 08:09:00,60.0,56.1,30.16,SE,142,0.0,0.0,87,0.00,CLR,,0.00,WeatherDisplay:10.37,2013-09-19 12:09:00,
2013-09-19 08:14:00,60.1,56.2,30.16,ESE,113,1.0,1.0,87,0.00,CLR,,0.00,WeatherDisplay:10.37,2013-09-19 12:14:00,
2013-09-19 08:19:00,60.2,56.0,30.16,ESE,122,1.1,0.0,86,0.00,CLR,,0.00,WeatherDisplay:10.37,2013-09-19 12:19:00,
2013-09-19 08:24:00,60.4,56.2,30.16,ESE,116,1.1,0.0,86,0.00,CLR,,0.00,WeatherDisplay:10.37,2013-09-19 12:24:00,
2013-09-19 08:29:00,60.7,56.5,30.16,SE,146,0.0,0.1,86,0.00,CLR,,0.00,WeatherDisplay:10.37,2013-09-19 12:29:00,
2013-09-19 08:34:00,61.1,56.6,30.16,SE,127,1.1,1.1,85,0.00,CLR,,0.00,WeatherDisplay:10.37,2013-09-19 12:34:00,
2013-09-19 08:39:00,61.4,56.8,30.17,ESE,117,0.0,0.0,85,0.00,CLR,,0.00,WeatherDisplay:10.37,2013-09-19 12:39:00,
2013-09-19 08:44:00,61.9,57.0,30.16,SSE,162,0.0,0.0,84,0.00,CLR,,0.00,WeatherDisplay:10.37,2013-09-19 12:44:00,
2013-09-19 08:49:00,62.3,57.1,30.16,SE,142,0.0,0.0,83,0.00,CLR,,0.00,WeatherDisplay:10.37,2013-09-19 12:49:00,
2013-09-19 08:54:00,62.4,57.2,30.17,ESE,102,1.1,1.1,83,0.00,CLR,,0.00,WeatherDisplay:10.37,2013-09-19 12:54:00,
2013-09-19 08:59:00,62.6,57.4,30.17,East,92,0.0,0.0,83,0.00,CLR,,0.00,WeatherDisplay:10.37,2013-09-19 12:59:00,
2013-09-19 09:04:00,63.0,57.4,30.17,ESE,115,0.0,0.0,82,0.00,CLR,,0.00,WeatherDisplay:10.37,2013-09-19 13:04:00,
2013-09-19 09:09:00,63.3,57.7,30.17,ESE,105,2.3,2.3,82,0.00,CLR,,0.00,WeatherDisplay:10.37,2013-09-19 13:09:00,
2013-09-19 09:14:00,63.5,57.9,30.17,East,97,0.0,0.0,82,0.00,CLR,,0.00,WeatherDisplay:10.37,2013-09-19 13:14:00,
2013-09-19 09:19:00,63.9,58.0,30.17,South,183,0.0,0.0,81,0.00,CLR,,0.00,WeatherDisplay:10.37,2013-09-19 13:19:00,
2013-09-19 09:24:00,64.3,58.3,30.17,SE,127,1.1,1.1,81,0.00,CLR,,0.00,WeatherDisplay:10.37,2013-09-19 13:24:00,
2013-09-19 09:29:00,64.7,58.4,30.17,East,85,2.3,2.3,80,0.00,CLR,,0.00,WeatherDisplay:10.37,2013-09-19 13:29:00,
2013-09-19 09:34:00,65.0,58.7,30.16,ESE,120,0.0,0.0,80,0.00,CLR,,0.00,WeatherDisplay:10.37,2013-09-19 13:34:00,
2013-09-19 09:39:00,65.4,59.1,30.16,ESE,120,0.0,0.0,80,0.00,CLR,,0.00,WeatherDisplay:10.37,2013-09-19 13:39:00,
2013-09-19 09:44:00,65.8,59.1,30.17,ESE,120,0.0,0.0,79,0.00,CLR,,0.00,WeatherDisplay:10.37,2013-09-19 13:44:00,
2013-09-19 09:49:00,66.1,59.0,30.17,ESE,120,0.0,0.0,78,0.00,CLR,,0.00,WeatherDisplay:10.37,2013-09-19 13:49:00,
2013-09-19 09:54:00,66.5,59.1,30.17,SE,128,0.0,0.0,77,0.00,CLR,,0.00,WeatherDisplay:10.37,2013-09-19 13:54:00,
2013-09-19 09:59:00,66.6,58.8,30.17,SE,124,0.0,0.0,76,0.00,CLR,,0.00,WeatherDisplay:10.37,2013-09-19 13:59:00,
2013-09-19 10:04:00,66.8,58.6,30.17,ESE,113,3.5,3.5,75,0.00,CLR,,0.00,WeatherDisplay:10.37,2013-09-19 14:04:00,
2013-09-19 10:09:00,67.1,58.5,30.17,East,99,0.0,0.0,74,0.00,CLR,,0.00,WeatherDisplay:10.37,2013-09-19 14:09:00,
2013-09-19 10:14:00,67.3,58.3,30.17,ESE,103,0.0,0.0,73,0.00,CLR,,0.00,WeatherDisplay:10.37,2013-09-19 14:14:00,
2013-09-19 10:19:00,67.8,58.4,30.17,SSW,200,0.0,0.0,72,0.00,CLR,,0.00,WeatherDisplay:10.37,2013-09-19 14:19:00,
2013-09-19 10:24:00,68.1,58.3,30.17,ESE,105,1.1,0.0,71,0.00,CLR,,0.00,WeatherDisplay:10.37,2013-09-19 14:24:00,
2013-09-19 10:29:00,68.5,59.1,30.17,NNE,29,0.0,0.0,72,0.00,CLR,,0.00,WeatherDisplay:10.37,2013-09-19 14:29:00,
2013-09-19 10:34:00,68.8,59.0,30.17,ESE,117,1.1,1.1,71,0.00,CLR,,0.00,WeatherDisplay:10.37,2013-09-19 14:34:00,
2013-09-19 10:39:00,68.7,58.9,30.17,SE,136,3.5,3.5,71,0.00,CLR,,0.00,WeatherDisplay:10.37,2013-09-19 14:39:00,
2013-09-19 10:44:00,68.9,59.1,30.17,WNW,301,2.3,2.3,71,0.00,CLR,,0.00,WeatherDisplay:10.37,2013-09-19 14:44:00,
2013-09-19 10:49:00,69.0,59.6,30.17,North,11,0.0,0.0,72,0.00,CLR,,0.00,WeatherDisplay:10.37,2013-09-19 14:49:00,
2013-09-19 10:54:00,69.3,59.5,30.17,SSW,207,2.3,2.3,71,0.00,CLR,,0.00,WeatherDisplay:10.37,2013-09-19 14:54:00,
2013-09-19 10:59:00,69.6,59.0,30.17,SSE,155,2.3,2.3,69,0.00,CLR,,0.00,WeatherDisplay:10.37,2013-09-19 14:59:00,
2013-09-19 11:04:00,69.6,58.2,30.17,East,99,2.3,2.3,67,0.00,CLR,,0.00,WeatherDisplay:10.37,2013-09-19 15:04:00,
2013-09-19 11:09:00,69.6,59.4,30.17,ESE,117,0.0,0.0,70,0.00,CLR,,0.00,WeatherDisplay:10.37,2013-09-19 15:09:00,
2013-09-19 11:14:00,70.2,58.3,30.17,East,81,1.1,1.1,66,0.00,CLR,,0.00,WeatherDisplay:10.37,2013-09-19 15:14:00,
2013-09-19 11:19:00,70.0,58.5,30.17,West,267,1.1,1.1,67,0.00,CLR,,0.00,WeatherDisplay:10.37,2013-09-19 15:19:00,
2013-09-19 11:24:00,70.0,58.5,30.17,North,4,0.0,0.0,67,0.00,CLR,,0.00,WeatherDisplay:10.37,2013-09-19 15:24:00,
2013-09-19 11:29:00,71.0,58.2,30.17,ESE,118,4.6,4.6,64,0.00,CLR,,0.00,WeatherDisplay:10.37,2013-09-19 15:29:00,
2013-09-19 11:34:00,71.7,58.4,30.17,East,88,2.0,2.0,63,0.00,CLR,,0.00,WeatherDisplay:10.37,2013-09-19 15:34:00,
2013-09-19 11:39:00,71.8,57.2,30.17,East,86,0.0,0.0,60,0.00,CLR,,0.00,WeatherDisplay:10.37,2013-09-19 15:39:00,
2013-09-19 11:44:00,72.1,57.9,30.17,NNE,20,2.3,2.3,61,0.00,CLR,,0.00,WeatherDisplay:10.37,2013-09-19 15:44:00,
2013-09-19 11:49:00,72.3,56.7,30.17,WSW,246,0.0,0.0,58,0.00,CLR,,0.00,WeatherDisplay:10.37,2013-09-19 15:49:00,
2013-09-19 11:54:00,72.3,57.2,30.17,ESE,120,1.1,1.1,59,0.00,CLR,,0.00,WeatherDisplay:10.37,2013-09-19 15:54:00,
2013-09-19 11:59:00,72.3,57.2,30.17,East,83,1.0,1.0,59,0.00,CLR,,0.00,WeatherDisplay:10.37,2013-09-19 15:59:00,
2013-09-19 12:04:00,72.1,57.0,30.17,East,87,2.3,0.0,59,0.00,CLR,,0.00,WeatherDisplay:10.37,2013-09-19 16:04:00,
2013-09-19 12:09:00,72.1,56.0,30.17,ESE,113,1.1,1.1,57,0.00,CLR,,0.00,WeatherDisplay:10.37,2013-09-19 16:09:00,
2013-09-19 12:14:00,71.8,57.6,30.17,East,85,0.0,0.0,61,0.00,CLR,,0.00,WeatherDisplay:10.37,2013-09-19 16:14:00,
2013-09-19 12:19:00,71.6,57.0,30.17,SE,126,2.3,0.0,60,0.00,CLR,,0.00,WeatherDisplay:10.37,2013-09-19 16:19:00,
2013-09-19 12:24:00,71.8,56.2,30.17,ESE,114,1.1,1.1,58,0.00,CLR,,0.00,WeatherDisplay:10.37,2013-09-19 16:24:00,
2013-09-19 12:29:00,72.1,57.9,30.17,ESE,116,0.0,0.0,61,0.00,CLR,,0.00,WeatherDisplay:10.37,2013-09-19 16:29:00,
2013-09-19 12:34:00,71.9,56.8,30.17,East,82,2.3,2.3,59,0.00,CLR,,0.00,WeatherDisplay:10.37,2013-09-19 16:34:00,
2013-09-19 12:39:00,71.6,57.0,30.16,SE,130,3.5,3.5,60,0.00,CLR,,0.00,WeatherDisplay:10.37,2013-09-19 16:39:00,
2013-09-19 12:44:00,71.8,57.6,30.16,WSW,252,1.1,0.0,61,0.00,CLR,,0.00,WeatherDisplay:10.37,2013-09-19 16:44:00,
2013-09-19 12:49:00,72.0,57.4,30.16,ESE,106,1.1,1.1,60,0.00,CLR,,0.00,WeatherDisplay:10.37,2013-09-19 16:49:00,
2013-09-19 12:54:00,72.1,57.0,30.15,SW,231,2.3,0.0,59,0.00,CLR,,0.00,WeatherDisplay:10.37,2013-09-19 16:54:00,
2013-09-19 12:59:00,72.7,57.1,30.15,SE,132,2.3,0.0,58,0.00,CLR,,0.00,WeatherDisplay:10.37,2013-09-19 16:59:00,
2013-09-19 13:04:00,73.1,57.0,30.15,SSE,160,2.3,2.3,57,0.00,CLR,,0.00,WeatherDisplay:10.37,2013-09-19 17:04:00,
2013-09-19 13:09:00,73.0,56.9,30.15,SE,125,3.5,3.5,57,0.00,CLR,,0.00,WeatherDisplay:10.37,2013-09-19 17:09:00,
2013-09-19 13:14:00,73.4,57.2,30.14,WSW,245,0.0,0.0,57,0.00,CLR,,0.00,WeatherDisplay:10.37,2013-09-19 17:14:00,
2013-09-19 13:19:00,74.2,58.0,30.14,East,91,1.1,1.1,57,0.00,CLR,,0.00,WeatherDisplay:10.37,2013-09-19 17:19:00,
2013-09-19 13:24:00,74.1,57.4,30.14,ESE,115,2.3,2.3,56,0.00,CLR,,0.00,WeatherDisplay:10.37,2013-09-19 17:24:00,
2013-09-19 13:30:00,74.1,58.4,30.14,SE,131,0.0,0.0,58,0.00,CLR,,0.00,WeatherDisplay:10.37,2013-09-19 17:30:00,
2013-09-19 13:35:00,75.1,57.8,30.13,ESE,108,3.5,3.5,55,0.00,CLR,,0.00,WeatherDisplay:10.37,2013-09-19 17:35:00,
2013-09-19 13:40:00,75.4,58.6,30.13,NE,47,0.0,0.0,56,0.00,CLR,,0.00,WeatherDisplay:10.37,2013-09-19 17:40:00,
2013-09-19 13:45:00,76.3,58.9,30.12,SSE,151,1.1,1.1,55,0.00,CLR,,0.00,WeatherDisplay:10.37,2013-09-19 17:45:00,
2013-09-19 13:50:00,77.3,59.4,30.12,North,6,1.1,1.1,54,0.00,CLR,,0.00,WeatherDisplay:10.37,2013-09-19 17:50:00,
2013-09-19 13:55:00,77.5,59.5,30.12,WSW,256,2.0,2.0,54,0.00,CLR,,0.00,WeatherDisplay:10.37,2013-09-19 17:55:00,
2013-09-19 14:00:00,77.3,59.4,30.12,ENE,63,2.3,2.3,54,0.00,CLR,,0.00,WeatherDisplay:10.37,2013-09-19 18:00:00,
2013-09-19 14:05:00,77.5,59.5,30.12,NNW,339,2.3,0.0,54,0.00,CLR,,0.00,WeatherDisplay:10.37,2013-09-19 18:05:00,
2013-09-19 14:10:00,78.4,59.3,30.12,NE,36,1.1,1.1,52,0.00,CLR,,0.00,WeatherDisplay:10.37,2013-09-19 18:10:00,
2013-09-19 14:15:00,78.1,59.0,30.12,East,79,3.5,3.5,52,0.00,CLR,,0.00,WeatherDisplay:10.37,2013-09-19 18:15:00,
2013-09-19 14:20:00,77.6,59.1,30.11,NW,319,2.3,2.3,53,0.00,CLR,,0.00,WeatherDisplay:10.37,2013-09-19 18:20:00,
2013-09-19 14:25:00,78.3,59.2,30.11,SSE,150,0.0,0.0,52,0.00,CLR,,0.00,WeatherDisplay:10.37,2013-09-19 18:25:00,
2013-09-19 14:30:00,79.1,60.5,30.11,WNW,297,0.0,0.0,53,0.00,CLR,,0.00,WeatherDisplay:10.37,2013-09-19 18:30:00,
2013-09-19 14:35:00,79.4,59.7,30.11,West,275,1.1,0.0,51,0.00,CLR,,0.00,WeatherDisplay:10.37,2013-09-19 18:35:00,
2013-09-19 14:40:00,79.4,59.7,30.11,SE,145,0.0,0.0,51,0.00,CLR,,0.00,WeatherDisplay:10.37,2013-09-19 18:40:00,
2013-09-19 14:45:00,79.2,59.5,30.11,WSW,239,3.5,3.5,51,0.00,CLR,,0.00,WeatherDisplay:10.37,2013-09-19 18:45:00,
2013-09-19 14:50:00,78.3,60.3,30.10,SW,216,1.1,1.1,54,0.00,CLR,,0.00,WeatherDisplay:10.37,2013-09-19 18:50:00,
2013-09-19 14:55:00,77.8,59.8,30.10,North,1,0.0,0.0,54,0.00,CLR,,0.00,WeatherDisplay:10.37,2013-09-19 18:55:00,
2013-09-19 15:00:00,77.5,60.1,30.10,ESE,109,1.1,0.0,55,0.00,CLR,,0.00,WeatherDisplay:10.37,2013-09-19 19:00:00,
2013-09-19 15:05:00,77.9,60.4,30.10,West,270,1.1,1.1,55,0.00,CLR,,0.00,WeatherDisplay:10.37,2013-09-19 19:05:00,
2013-09-19 15:10:00,78.2,60.2,30.09,SE,141,2.3,2.3,54,0.00,CLR,,0.00,WeatherDisplay:10.37,2013-09-19 19:10:00,
2013-09-19 15:15:00,78.5,61.0,30.09,NW,306,1.1,1.1,55,0.00,CLR,,0.00,WeatherDisplay:10.37,2013-09-19 19:15:00,
2013-09-19 15:20:00,77.4,59.5,30.09,ESE,123,4.6,4.6,54,0.00,CLR,,0.00,WeatherDisplay:10.37,2013-09-19 19:20:00,
2013-09-19 15:25:00,77.0,60.1,30.09,East,94,4.6,4.6,56,0.00,CLR,,0.00,WeatherDisplay:10.37,2013-09-19 19:25:00,
2013-09-19 15:30:00,77.0,60.1,30.09,SE,127,1.1,1.1,56,0.00,CLR,,0.00,WeatherDisplay:10.37,2013-09-19 19:30:00,
2013-09-19 15:35:00,77.4,60.5,30.09,ENE,68,1.1,0.0,56,0.00,CLR,,0.00,WeatherDisplay:10.37,2013-09-19 19:35:00,
2013-09-19 15:40:00,77.5,60.6,30.09,WSW,252,2.0,2.0,56,0.00,CLR,,0.00,WeatherDisplay:10.37,2013-09-19 19:40:00,
2013-09-19 15:45:00,77.2,60.3,30.09,West,266,3.5,3.5,56,0.00,CLR,,0.00,WeatherDisplay:10.37,2013-09-19 19:45:00,
2013-09-19 15:50:00,76.9,60.5,30.09,NE,37,0.0,0.0,57,0.00,CLR,,0.00,WeatherDisplay:10.37,2013-09-19 19:50:00,
2013-09-19 15:55:00,76.3,59.9,30.09,East,89,2.3,2.3,57,0.00,CLR,,0.00,WeatherDisplay:10.37,2013-09-19 19:55:00,
2013-09-19 16:00:00,75.9,60.1,30.08,SE,129,2.3,2.3,58,0.00,CLR,,0.00,WeatherDisplay:10.37,2013-09-19 20:00:00,
2013-09-19 16:05:00,76.0,60.6,30.08,SE,125,0.0,0.0,59,0.00,CLR,,0.00,WeatherDisplay:10.37,2013-09-19 20:05:00,
2013-09-19 16:10:00,76.6,61.7,30.08,SE,126,0.0,0.0,60,0.00,CLR,,0.00,WeatherDisplay:10.37,2013-09-19 20:10:00,
2013-09-19 16:15:00,76.8,60.9,30.09,WSW,249,0.0,0.0,58,0.00,CLR,,0.00,WeatherDisplay:10.37,2013-09-19 20:15:00,
2013-09-19 16:20:00,76.8,61.9,30.08,NE,39,0.0,0.0,60,0.00,CLR,,0.00,WeatherDisplay:10.37,2013-09-19 20:20:00,
2013-09-19 16:25:00,76.7,60.8,30.08,WSW,255,2.3,2.3,58,0.00,CLR,,0.00,WeatherDisplay:10.37,2013-09-19 20:25:00,
2013-09-19 16:30:00,77.0,61.1,30.08,SE,138,2.0,2.0,58,0.00,CLR,,0.00,WeatherDisplay:10.37,2013-09-19 20:30:00,
2013-09-19 16:35:00,77.5,62.0,30.08,ENE,72,1.1,1.1,59,0.00,CLR,,0.00,WeatherDisplay:10.37,2013-09-19 20:35:00,
2013-09-19 16:40:00,78.4,61.9,30.08,West,269,1.1,0.0,57,0.00,CLR,,0.00,WeatherDisplay:10.37,2013-09-19 20:40:00,
2013-09-19 16:46:00,78.7,61.2,30.08,SW,215,3.5,3.5,55,0.00,CLR,,0.00,WeatherDisplay:10.37,2013-09-19 20:46:00,
2013-09-19 16:51:00,78.5,61.0,30.08,East,82,2.3,2.3,55,0.00,CLR,,0.00,WeatherDisplay:10.37,2013-09-19 20:51:00,
2013-09-19 16:56:00,78.3,61.3,30.08,East,82,0.0,0.0,56,0.00,CLR,,0.00,WeatherDisplay:10.37,2013-09-19 20:56:00,
2013-09-19 17:01:00,78.3,61.3,30.08,East,82,0.0,0.0,56,0.00,CLR,,0.00,WeatherDisplay:10.37,2013-09-19 21:01:00,
2013-09-19 17:06:00,78.3,61.8,30.08,West,266,0.0,0.0,57,0.00,CLR,,0.00,WeatherDisplay:10.37,2013-09-19 21:06:00,
2013-09-19 17:11:00,77.7,61.3,30.08,WSW,257,0.0,0.0,57,0.00,CLR,,0.00,WeatherDisplay:10.37,2013-09-19 21:11:00,
2013-09-19 17:16:00,77.5,61.1,30.08,South,173,0.0,0.0,57,0.00,CLR,,0.00,WeatherDisplay:10.37,2013-09-19 21:16:00,
2013-09-19 17:21:00,77.0,62.0,30.08,South,173,0.0,0.0,60,0.00,CLR,,0.00,WeatherDisplay:10.37,2013-09-19 21:21:00,
2013-09-19 17:26:00,77.0,62.0,30.08,South,174,0.0,0.0,60,0.00,CLR,,0.00,WeatherDisplay:10.37,2013-09-19 21:26:00,
2013-09-19 17:31:00,76.9,61.5,30.08,South,174,0.0,0.0,59,0.00,CLR,,0.00,WeatherDisplay:10.37,2013-09-19 21:31:00,
2013-09-19 17:36:00,76.6,61.7,30.08,East,100,0.0,0.0,60,0.00,CLR,,0.00,WeatherDisplay:10.37,2013-09-19 21:36:00,
2013-09-19 17:41:00,76.5,62.0,30.08,ENE,60,0.0,0.0,61,0.00,CLR,,0.00,WeatherDisplay:10.37,2013-09-19 21:41:00,
2013-09-19 17:46:00,76.1,62.1,30.08,ESE,112,0.0,0.0,62,0.00,CLR,,0.00,WeatherDisplay:10.37,2013-09-19 21:46:00,
2013-09-19 17:51:00,75.8,62.8,30.08,East,99,0.0,0.0,64,0.00,CLR,,0.00,WeatherDisplay:10.37,2013-09-19 21:51:00,
2013-09-19 17:56:00,75.5,62.5,30.08,East,99,0.0,0.0,64,0.00,CLR,,0.00,WeatherDisplay:10.37,2013-09-19 21:56:00,
2013-09-19 18:01:00,75.5,62.0,30.08,WSW,238,0.0,0.0,63,0.00,CLR,,0.00,WeatherDisplay:10.37,2013-09-19 22:01:00,
2013-09-19 18:06:00,75.3,61.8,30.08,SE,139,0.0,0.0,63,0.00,CLR,,0.00,WeatherDisplay:10.37,2013-09-19 22:06:00,
2013-09-19 18:11:00,75.1,62.1,30.08,SE,139,0.0,0.0,64,0.00,CLR,,0.00,WeatherDisplay:10.37,2013-09-19 22:11:00,
2013-09-19 18:16:00,74.9,61.9,30.08,SE,139,0.0,0.0,64,0.00,CLR,,0.00,WeatherDisplay:10.37,2013-09-19 22:16:00,
2013-09-19 18:21:00,74.7,61.7,30.08,SE,138,0.0,0.0,64,0.00,CLR,,0.00,WeatherDisplay:10.37,2013-09-19 22:21:00,
2013-09-19 18:26:00,74.5,61.5,30.08,SE,139,0.0,0.0,64,0.00,CLR,,0.00,WeatherDisplay:10.37,2013-09-19 22:26:00,
2013-09-19 18:31:00,74.4,61.9,30.08,SE,139,0.0,0.0,65,0.00,CLR,,0.00,WeatherDisplay:10.37,2013-09-19 22:31:00,
2013-09-19 18:36:00,74.2,62.1,30.08,SE,140,0.0,0.0,66,0.00,CLR,,0.00,WeatherDisplay:10.37,2013-09-19 22:36:00,
2013-09-19 18:41:00,73.9,62.2,30.08,SE,139,0.0,0.0,67,0.00,CLR,,0.00,WeatherDisplay:10.37,2013-09-19 22:41:00,
2013-09-19 18:46:00,73.5,61.9,30.08,SE,139,0.0,0.0,67,0.00,CLR,,0.00,WeatherDisplay:10.37,2013-09-19 22:46:00,
2013-09-19 18:51:00,73.2,62.0,30.08,SE,139,0.0,0.0,68,0.00,CLR,,0.00,WeatherDisplay:10.37,2013-09-19 22:51:00,
2013-09-19 18:56:00,73.0,62.2,30.08,SE,141,0.0,0.0,69,0.00,CLR,,0.00,WeatherDisplay:10.37,2013-09-19 22:56:00,
2013-09-19 19:01:00,72.8,62.0,30.08,SE,141,0.0,0.0,69,0.00,CLR,,0.00,WeatherDisplay:10.37,2013-09-19 23:01:00,
2013-09-19 19:06:00,72.6,62.3,30.08,SE,141,0.0,0.0,70,0.00,CLR,,0.00,WeatherDisplay:10.37,2013-09-19 23:06:00,
2013-09-19 19:11:00,72.4,62.1,30.08,SE,141,0.0,0.0,70,0.00,CLR,,0.00,WeatherDisplay:10.37,2013-09-19 23:11:00,
2013-09-19 19:16:00,72.2,62.3,30.08,SE,139,0.0,0.0,71,0.00,CLR,,0.00,WeatherDisplay:10.37,2013-09-19 23:16:00,
2013-09-19 19:21:00,72.0,62.1,30.08,SE,138,0.0,0.0,71,0.00,CLR,,0.00,WeatherDisplay:10.37,2013-09-19 23:21:00,
2013-09-19 19:26:00,71.9,61.6,30.08,SE,138,0.0,0.0,70,0.00,CLR,,0.00,WeatherDisplay:10.37,2013-09-19 23:26:00,
2013-09-19 19:31:00,71.7,61.8,30.08,SE,139,0.0,0.0,71,0.00,CLR,,0.00,WeatherDisplay:10.37,2013-09-19 23:31:00,
2013-09-19 19:36:00,71.5,61.6,30.08,SE,139,0.0,0.0,71,0.00,CLR,,0.00,WeatherDisplay:10.37,2013-09-19 23:36:00,
2013-09-19 19:41:00,71.3,61.4,30.08,SE,139,0.0,0.0,71,0.00,CLR,,0.00,WeatherDisplay:10.37,2013-09-19 23:41:00,
2013-09-19 19:46:00,71.1,61.6,30.08,SE,139,0.0,0.0,72,0.00,CLR,,0.00,WeatherDisplay:10.37,2013-09-19 23:46:00,
2013-09-19 19:51:00,70.9,61.4,30.08,SE,138,0.0,0.0,72,0.00,,,0.00,WeatherDisplay:10.37,2013-09-19 23:51:00,
2013-09-19 19:56:00,70.6,61.1,30.08,SE,138,0.0,0.0,72,0.00,,,0.00,WeatherDisplay:10.37,2013-09-19 23:56:00,
2013-09-19 20:01:00,70.4,61.3,30.07,SE,139,0.0,0.0,73,0.00,,,0.00,WeatherDisplay:10.37,2013-09-20 00:01:00,
2013-09-19 20:06:00,70.2,61.5,30.07,SE,139,0.0,0.0,74,0.00,,,0.00,WeatherDisplay:10.37,2013-09-20 00:06:00,
2013-09-19 20:11:00,70.0,61.3,30.07,SE,139,0.0,0.0,74,0.00,,,0.00,WeatherDisplay:10.37,2013-09-20 00:11:00,
2013-09-19 20:16:00,69.9,61.2,30.07,SE,139,0.0,0.0,74,0.00,,,0.00,WeatherDisplay:10.37,2013-09-20 00:16:00,
2013-09-19 20:21:00,69.6,60.9,30.07,SE,138,0.0,0.0,74,0.00,,,0.00,WeatherDisplay:10.37,2013-09-20 00:21:00,
2013-09-19 20:26:00,69.4,61.1,30.07,SE,139,0.0,0.0,75,0.00,,,0.00,WeatherDisplay:10.37,2013-09-20 00:26:00,
2013-09-19 20:31:00,69.2,60.9,30.08,SE,138,0.0,0.0,75,0.00,,,0.00,WeatherDisplay:10.37,2013-09-20 00:31:00,
2013-09-19 20:36:00,68.9,60.6,30.08,SE,138,0.0,0.0,75,0.00,,,0.00,WeatherDisplay:10.37,2013-09-20 00:36:00,
2013-09-19 20:41:00,68.6,60.7,30.08,SE,139,0.0,0.0,76,0.00,,,0.00,WeatherDisplay:10.37,2013-09-20 00:41:00,
2013-09-19 20:46:00,68.3,60.8,30.08,SE,138,0.0,0.0,77,0.00,,,0.00,WeatherDisplay:10.37,2013-09-20 00:46:00,
2013-09-19 20:51:00,67.9,60.4,30.08,SE,139,0.0,0.0,77,0.00,,,0.00,WeatherDisplay:10.37,2013-09-20 00:51:00,
2013-09-19 20:56:00,67.6,60.5,30.08,SE,139,0.0,0.0,78,0.00,,,0.00,WeatherDisplay:10.37,2013-09-20 00:56:00,
2013-09-19 21:01:00,67.4,60.7,30.08,SE,139,0.0,0.0,79,0.00,,,0.00,WeatherDisplay:10.37,2013-09-20 01:01:00,
2013-09-19 21:06:00,67.1,60.7,30.08,SE,138,0.0,0.0,80,0.00,,,0.00,WeatherDisplay:10.37,2013-09-20 01:06:00,
2013-09-19 21:11:00,66.9,60.5,30.08,SE,139,0.0,0.0,80,0.00,,,0.00,WeatherDisplay:10.37,2013-09-20 01:11:00,
2013-09-19 21:17:00,66.7,60.7,30.08,SE,138,0.0,0.0,81,0.00,,,0.00,WeatherDisplay:10.37,2013-09-20 01:17:00,
2013-09-19 21:22:00,66.5,60.5,30.07,SE,139,0.0,0.0,81,0.00,,,0.00,WeatherDisplay:10.37,2013-09-20 01:22:00,
2013-09-19 21:27:00,66.4,60.7,30.08,SE,138,0.0,0.0,82,0.00,,,0.00,WeatherDisplay:10.37,2013-09-20 01:27:00,
2013-09-19 21:32:00,66.3,60.3,30.08,SE,139,0.0,0.0,81,0.00,,,0.00,WeatherDisplay:10.37,2013-09-20 01:32:00,
2013-09-19 21:37:00,66.2,60.2,30.08,SE,139,0.0,0.0,81,0.00,,,0.00,WeatherDisplay:10.37,2013-09-20 01:37:00,
2013-09-19 21:42:00,66.1,60.4,30.08,SE,139,0.0,0.0,82,0.00,,,0.00,WeatherDisplay:10.37,2013-09-20 01:42:00,
2013-09-19 21:47:00,66.0,60.3,30.08,SE,139,0.0,0.0,82,0.00,,,0.00,WeatherDisplay:10.37,2013-09-20 01:47:00,
2013-09-19 21:52:00,65.9,60.2,30.08,SE,139,0.0,0.0,82,0.00,,,0.00,WeatherDisplay:10.37,2013-09-20 01:52:00,
2013-09-19 21:57:00,65.8,60.5,30.08,SE,139,0.0,0.0,83,0.00,,,0.00,WeatherDisplay:10.37,2013-09-20 01:57:00,
2013-09-19 22:02:00,65.8,60.5,30.07,SE,138,0.0,0.0,83,0.00,,,0.00,WeatherDisplay:10.37,2013-09-20 02:02:00,
2013-09-19 22:07:00,65.7,60.4,30.07,SE,138,0.0,0.0,83,0.00,,,0.00,WeatherDisplay:10.37,2013-09-20 02:07:00,
2013-09-19 22:12:00,66.0,60.3,30.08,SSE,157,0.0,0.0,82,0.00,,,0.00,WeatherDisplay:10.37,2013-09-20 02:12:00,
2013-09-19 22:17:00,66.3,60.3,30.08,SSE,156,0.0,0.0,81,0.00,,,0.00,WeatherDisplay:10.37,2013-09-20 02:17:00,
2013-09-19 22:22:00,66.5,60.1,30.08,SSE,157,0.0,0.0,80,0.00,,,0.00,WeatherDisplay:10.37,2013-09-20 02:22:00,
2013-09-19 22:27:00,66.7,60.3,30.08,SSE,156,0.0,0.0,80,0.00,,,0.00,WeatherDisplay:10.37,2013-09-20 02:27:00,
2013-09-19 22:32:00,67.1,60.4,30.08,SSE,157,0.0,0.0,79,0.00,,,0.00,WeatherDisplay:10.37,2013-09-20 02:32:00,
2013-09-19 22:37:00,67.3,60.9,30.08,SSE,156,0.0,0.0,80,0.00,,,0.00,WeatherDisplay:10.37,2013-09-20 02:37:00,
2013-09-19 22:42:00,67.4,61.0,30.07,SSE,156,0.0,0.0,80,0.00,,,0.00,WeatherDisplay:10.37,2013-09-20 02:42:00,
2013-09-19 22:47:00,67.5,61.1,30.07,SSE,156,0.0,0.0,80,0.00,,,0.00,WeatherDisplay:10.37,2013-09-20 02:47:00,
2013-09-19 22:52:00,67.4,61.0,30.07,SSE,156,0.0,0.0,80,0.00,,,0.00,WeatherDisplay:10.37,2013-09-20 02:52:00,
2013-09-19 22:57:00,67.4,60.7,30.07,SSE,156,0.0,0.0,79,0.00,,,0.00,WeatherDisplay:10.37,2013-09-20 02:57:00,
2013-09-19 23:02:00,67.4,60.7,30.07,SSE,156,0.0,0.0,79,0.00,,,0.00,WeatherDisplay:10.37,2013-09-20 03:02:00,
2013-09-19 23:07:00,67.5,60.8,30.07,SSE,156,0.0,0.0,79,0.00,,,0.00,WeatherDisplay:10.37,2013-09-20 03:07:00,
2013-09-19 23:12:00,67.5,60.8,30.07,SSE,156,0.0,0.0,79,0.00,,,0.00,WeatherDisplay:10.37,2013-09-20 03:12:00,
2013-09-19 23:17:00,67.6,60.9,30.07,SSE,156,0.0,0.0,79,0.00,,,0.00,WeatherDisplay:10.37,2013-09-20 03:17:00,
2013-09-19 23:22:00,67.6,60.9,30.07,SSE,150,0.0,0.0,79,0.00,,,0.00,WeatherDisplay:10.37,2013-09-20 03:22:00,
2013-09-19 23:27:00,67.6,60.5,30.06,SSE,152,0.0,0.0,78,0.00,,,0.00,WeatherDisplay:10.37,2013-09-20 03:27:00,
2013-09-19 23:32:00,67.5,60.4,30.07,SSE,151,0.0,0.0,78,0.00,,,0.00,WeatherDisplay:10.37,2013-09-20 03:32:00,
2013-09-19 23:37:00,67.4,60.7,30.06,SSE,150,0.0,0.0,79,0.00,,,0.00,WeatherDisplay:10.37,2013-09-20 03:37:00,
2013-09-19 23:42:00,67.2,60.5,30.06,SSE,150,0.0,0.0,79,0.00,,,0.00,WeatherDisplay:10.37,2013-09-20 03:42:00,
2013-09-19 23:47:00,66.9,60.5,30.06,SSE,151,0.0,0.0,80,0.00,,,0.00,WeatherDisplay:10.37,2013-09-20 03:47:00,
2013-09-19 23:52:00,66.7,60.3,30.06,SSE,152,0.0,0.0,80,0.00,,,0.00,WeatherDisplay:10.37,2013-09-20 03:52:00,
2013-09-19 23:57:00,66.4,60.0,30.06,SSE,152,0.0,0.0,80,0.00,,,0.00,WeatherDisplay:10.37,2013-09-20 03:57:00,